Molina De Aragon, Spain
Current Conditions -  °F | °C
As of 10:00 AM on Friday 31 Oct 2014 (Local Time) from LETL Reporting Station
Light Rain Light Rain  
Wind Chill: 54°   Ceiling: Unl
Heat Index: 54°   Visibility: 1.3mi
Dew Point: 43°   Wind: 2mph
Humidity: 67%   Direction: NA
Pressure: 30.33"   Gusts: NA
Location:  40.84°N, 1.88°W
Report Text: LETL 310900Z AUTO VRB02KT 2100 -RA VV/// 12/06 Q1027
Loading
Personal Weather Stations






























Interactive Weather Map
Tropical Storm Tracking
New forecast layout! Learn more

10-Day Weather Forecast

Advertisements
Track Severe Weather on mobile